sensor_id;sensor_type;location;lat;lon;timestamp;P1;durP1;ratioP1;P2;durP2;ratioP2
75408;SDS011;63979;55.644;37.734;2024-02-21T00:01:35;5.57;;;2.83;;
75408;SDS011;63979;55.644;37.734;2024-02-21T00:06:36;7.75;;;3.97;;
75408;SDS011;63979;55.644;37.734;2024-02-21T00:11:36;5.80;;;3.00;;
75408;SDS011;63979;55.644;37.734;2024-02-21T00:16:38;5.72;;;3.53;;
75408;SDS011;63979;55.644;37.734;2024-02-21T00:21:38;9.77;;;3.40;;
75408;SDS011;63979;55.644;37.734;2024-02-21T00:26:39;4.60;;;4.00;;
75408;SDS011;63979;55.644;37.734;2024-02-21T00:31:40;3.63;;;2.97;;
75408;SDS011;63979;55.644;37.734;2024-02-21T00:36:41;10.20;;;4.00;;
75408;SDS011;63979;55.644;37.734;2024-02-21T00:41:41;4.07;;;3.08;;
75408;SDS011;63979;55.644;37.734;2024-02-21T00:46:42;6.07;;;3.60;;
75408;SDS011;63979;55.644;37.734;2024-02-21T00:51:43;6.82;;;3.72;;
75408;SDS011;63979;55.644;37.734;2024-02-21T00:56:44;11.05;;;5.60;;
75408;SDS011;63979;55.644;37.734;2024-02-21T01:01:45;13.20;;;3.95;;
75408;SDS011;63979;55.644;37.734;2024-02-21T01:06:45;4.78;;;3.47;;
75408;SDS011;63979;55.644;37.734;2024-02-21T01:11:47;5.82;;;4.13;;
75408;SDS011;63979;55.644;37.734;2024-02-21T01:16:47;8.35;;;5.13;;
75408;SDS011;63979;55.644;37.734;2024-02-21T01:21:48;6.05;;;3.10;;
75408;SDS011;63979;55.644;37.734;2024-02-21T01:26:49;6.85;;;3.15;;
75408;SDS011;63979;55.644;37.734;2024-02-21T01:31:50;7.07;;;4.07;;
75408;SDS011;63979;55.644;37.734;2024-02-21T01:36:51;7.32;;;4.40;;
75408;SDS011;63979;55.644;37.734;2024-02-21T01:41:52;5.93;;;3.67;;
75408;SDS011;63979;55.644;37.734;2024-02-21T01:46:52;4.35;;;3.80;;
75408;SDS011;63979;55.644;37.734;2024-02-21T01:51:53;6.18;;;2.75;;
75408;SDS011;63979;55.644;37.734;2024-02-21T01:56:55;6.13;;;1.92;;
75408;SDS011;63979;55.644;37.734;2024-02-21T02:01:56;9.45;;;3.85;;
75408;SDS011;63979;55.644;37.734;2024-02-21T02:06:57;5.47;;;3.25;;
75408;SDS011;63979;55.644;37.734;2024-02-21T02:12:03;3.78;;;2.60;;
75408;SDS011;63979;55.644;37.734;2024-02-21T02:17:04;7.78;;;4.75;;
75408;SDS011;63979;55.644;37.734;2024-02-21T02:22:09;4.65;;;3.35;;
75408;SDS011;63979;55.644;37.734;2024-02-21T02:27:18;7.15;;;4.22;;
75408;SDS011;63979;55.644;37.734;2024-02-21T02:32:19;4.20;;;3.05;;
75408;SDS011;63979;55.644;37.734;2024-02-21T02:37:20;6.03;;;5.10;;
75408;SDS011;63979;55.644;37.734;2024-02-21T02:42:21;5.18;;;3.03;;
75408;SDS011;63979;55.644;37.734;2024-02-21T02:47:21;6.25;;;5.15;;
75408;SDS011;63979;55.644;37.734;2024-02-21T02:52:22;7.10;;;4.25;;
75408;SDS011;63979;55.644;37.734;2024-02-21T02:57:23;3.85;;;2.53;;
75408;SDS011;63979;55.644;37.734;2024-02-21T03:02:24;11.27;;;6.50;;
75408;SDS011;63979;55.644;37.734;2024-02-21T03:07:25;5.78;;;3.47;;
75408;SDS011;63979;55.644;37.734;2024-02-21T03:12:26;8.60;;;5.72;;
75408;SDS011;63979;55.644;37.734;2024-02-21T03:17:28;5.70;;;3.33;;
75408;SDS011;63979;55.644;37.734;2024-02-21T03:22:29;6.38;;;3.08;;
75408;SDS011;63979;55.644;37.734;2024-02-21T03:27:30;12.25;;;4.47;;
75408;SDS011;63979;55.644;37.734;2024-02-21T03:32:31;6.95;;;4.00;;
75408;SDS011;63979;55.644;37.734;2024-02-21T03:37:32;5.20;;;3.25;;
75408;SDS011;63979;55.644;37.734;2024-02-21T03:42:33;11.07;;;4.90;;
75408;SDS011;63979;55.644;37.734;2024-02-21T03:47:33;6.55;;;3.22;;
75408;SDS011;63979;55.644;37.734;2024-02-21T03:52:34;10.30;;;5.78;;
75408;SDS011;63979;55.644;37.734;2024-02-21T03:57:35;7.55;;;4.15;;
75408;SDS011;63979;55.644;37.734;2024-02-21T04:02:36;6.75;;;3.67;;
75408;SDS011;63979;55.644;37.734;2024-02-21T04:07:37;14.18;;;6.75;;
75408;SDS011;63979;55.644;37.734;2024-02-21T04:12:39;10.13;;;4.03;;
75408;SDS011;63979;55.644;37.734;2024-02-21T04:17:40;7.75;;;4.20;;
75408;SDS011;63979;55.644;37.734;2024-02-21T04:22:42;7.53;;;4.50;;
75408;SDS011;63979;55.644;37.734;2024-02-21T04:27:44;11.52;;;5.78;;
75408;SDS011;63979;55.644;37.734;2024-02-21T04:32:45;6.13;;;3.92;;
75408;SDS011;63979;55.644;37.734;2024-02-21T04:37:45;11.10;;;4.63;;
75408;SDS011;63979;55.644;37.734;2024-02-21T04:42:46;7.65;;;4.47;;
75408;SDS011;63979;55.644;37.734;2024-02-21T04:47:47;8.13;;;5.07;;
75408;SDS011;63979;55.644;37.734;2024-02-21T04:52:48;7.90;;;4.18;;
75408;SDS011;63979;55.644;37.734;2024-02-21T04:57:49;10.70;;;5.05;;
75408;SDS011;63979;55.644;37.734;2024-02-21T05:02:50;6.10;;;3.60;;
75408;SDS011;63979;55.644;37.734;2024-02-21T05:07:51;7.95;;;4.28;;
75408;SDS011;63979;55.644;37.734;2024-02-21T05:12:52;6.93;;;3.55;;
75408;SDS011;63979;55.644;37.734;2024-02-21T05:17:53;7.68;;;4.60;;
75408;SDS011;63979;55.644;37.734;2024-02-21T05:22:54;9.23;;;3.92;;
75408;SDS011;63979;55.644;37.734;2024-02-21T05:27:55;6.40;;;4.22;;
75408;SDS011;63979;55.644;37.734;2024-02-21T05:33:05;11.90;;;6.43;;
75408;SDS011;63979;55.644;37.734;2024-02-21T05:38:06;9.30;;;5.35;;
75408;SDS011;63979;55.644;37.734;2024-02-21T05:43:11;9.85;;;5.90;;
75408;SDS011;63979;55.644;37.734;2024-02-21T05:48:12;5.25;;;3.53;;
75408;SDS011;63979;55.644;37.734;2024-02-21T05:53:13;8.20;;;4.15;;
75408;SDS011;63979;55.644;37.734;2024-02-21T05:58:17;9.30;;;5.15;;
75408;SDS011;63979;55.644;37.734;2024-02-21T06:03:18;10.38;;;4.25;;
75408;SDS011;63979;55.644;37.734;2024-02-21T06:08:19;14.48;;;5.97;;
75408;SDS011;63979;55.644;37.734;2024-02-21T06:13:23;9.45;;;5.72;;
75408;SDS011;63979;55.644;37.734;2024-02-21T06:18:24;14.25;;;7.25;;
75408;SDS011;63979;55.644;37.734;2024-02-21T06:23:25;5.53;;;3.75;;
75408;SDS011;63979;55.644;37.734;2024-02-21T06:28:26;11.60;;;5.32;;
75408;SDS011;63979;55.644;37.734;2024-02-21T06:33:27;12.30;;;6.57;;
75408;SDS011;63979;55.644;37.734;2024-02-21T06:38:28;8.95;;;5.47;;
75408;SDS011;63979;55.644;37.734;2024-02-21T06:43:29;12.95;;;6.72;;
75408;SDS011;63979;55.644;37.734;2024-02-21T06:48:30;13.38;;;7.70;;
75408;SDS011;63979;55.644;37.734;2024-02-21T06:53:31;10.63;;;5.78;;
75408;SDS011;63979;55.644;37.734;2024-02-21T06:58:32;11.60;;;5.75;;
75408;SDS011;63979;55.644;37.734;2024-02-21T07:03:33;9.25;;;5.50;;
75408;SDS011;63979;55.644;37.734;2024-02-21T07:08:34;12.60;;;6.00;;
75408;SDS011;63979;55.644;37.734;2024-02-21T07:13:35;7.35;;;5.88;;
75408;SDS011;63979;55.644;37.734;2024-02-21T07:18:36;10.13;;;5.05;;
75408;SDS011;63979;55.644;37.734;2024-02-21T07:23:36;15.48;;;7.38;;
75408;SDS011;63979;55.644;37.734;2024-02-21T07:28:40;12.90;;;6.25;;
75408;SDS011;63979;55.644;37.734;2024-02-21T07:33:43;8.00;;;4.95;;
75408;SDS011;63979;55.644;37.734;2024-02-21T07:38:44;8.52;;;5.18;;
75408;SDS011;63979;55.644;37.734;2024-02-21T07:43:45;12.20;;;6.60;;
75408;SDS011;63979;55.644;37.734;2024-02-21T07:48:45;6.40;;;3.90;;
75408;SDS011;63979;55.644;37.734;2024-02-21T07:53:47;8.95;;;5.40;;
75408;SDS011;63979;55.644;37.734;2024-02-21T07:58:49;10.05;;;7.53;;
75408;SDS011;63979;55.644;37.734;2024-02-21T08:03:50;11.52;;;7.13;;
75408;SDS011;63979;55.644;37.734;2024-02-21T08:08:51;12.95;;;8.00;;
75408;SDS011;63979;55.644;37.734;2024-02-21T08:13:52;13.23;;;7.18;;
75408;SDS011;63979;55.644;37.734;2024-02-21T08:18:53;11.07;;;6.82;;
75408;SDS011;63979;55.644;37.734;2024-02-21T08:23:54;12.50;;;7.55;;
75408;SDS011;63979;55.644;37.734;2024-02-21T08:28:55;9.82;;;6.88;;
75408;SDS011;63979;55.644;37.734;2024-02-21T08:34:00;11.00;;;6.85;;
75408;SDS011;63979;55.644;37.734;2024-02-21T08:39:04;9.65;;;6.60;;
75408;SDS011;63979;55.644;37.734;2024-02-21T08:44:05;13.95;;;7.78;;
75408;SDS011;63979;55.644;37.734;2024-02-21T08:49:09;11.82;;;7.38;;
75408;SDS011;63979;55.644;37.734;2024-02-21T08:54:10;11.98;;;8.98;;
75408;SDS011;63979;55.644;37.734;2024-02-21T08:59:11;11.88;;;8.02;;
75408;SDS011;63979;55.644;37.734;2024-02-21T09:04:12;15.00;;;7.15;;
75408;SDS011;63979;55.644;37.734;2024-02-21T09:09:13;10.77;;;7.03;;
75408;SDS011;63979;55.644;37.734;2024-02-21T09:14:14;11.93;;;8.27;;
75408;SDS011;63979;55.644;37.734;2024-02-21T09:19:15;9.90;;;6.18;;
75408;SDS011;63979;55.644;37.734;2024-02-21T09:24:17;9.25;;;6.07;;
75408;SDS011;63979;55.644;37.734;2024-02-21T09:29:18;10.43;;;5.47;;
75408;SDS011;63979;55.644;37.734;2024-02-21T09:34:19;10.73;;;6.72;;
75408;SDS011;63979;55.644;37.734;2024-02-21T09:39:20;9.77;;;5.47;;
75408;SDS011;63979;55.644;37.734;2024-02-21T09:44:21;7.80;;;4.50;;
75408;SDS011;63979;55.644;37.734;2024-02-21T09:49:32;11.80;;;6.38;;
75408;SDS011;63979;55.644;37.734;2024-02-21T09:54:38;11.05;;;5.32;;
75408;SDS011;63979;55.644;37.734;2024-02-21T09:59:42;7.00;;;3.42;;
75408;SDS011;63979;55.644;37.734;2024-02-21T10:04:43;8.07;;;4.57;;
75408;SDS011;63979;55.644;37.734;2024-02-21T10:09:44;5.20;;;3.13;;
75408;SDS011;63979;55.644;37.734;2024-02-21T10:14:48;10.82;;;4.32;;
75408;SDS011;63979;55.644;37.734;2024-02-21T10:19:49;6.82;;;3.88;;
75408;SDS011;63979;55.644;37.734;2024-02-21T10:24:50;7.30;;;3.97;;
75408;SDS011;63979;55.644;37.734;2024-02-21T10:29:51;6.38;;;3.28;;
75408;SDS011;63979;55.644;37.734;2024-02-21T10:35:00;8.50;;;4.35;;
75408;SDS011;63979;55.644;37.734;2024-02-21T10:40:03;5.22;;;2.97;;
75408;SDS011;63979;55.644;37.734;2024-02-21T10:45:05;5.60;;;3.63;;
75408;SDS011;63979;55.644;37.734;2024-02-21T10:50:08;6.88;;;4.13;;
75408;SDS011;63979;55.644;37.734;2024-02-21T10:55:21;7.32;;;3.38;;
75408;SDS011;63979;55.644;37.734;2024-02-21T11:00:34;8.13;;;4.72;;
75408;SDS011;63979;55.644;37.734;2024-02-21T11:05:36;9.48;;;4.38;;
75408;SDS011;63979;55.644;37.734;2024-02-21T11:10:38;8.40;;;4.30;;
75408;SDS011;63979;55.644;37.734;2024-02-21T11:15:41;6.95;;;3.92;;
75408;SDS011;63979;55.644;37.734;2024-02-21T11:20:49;8.68;;;3.63;;
75408;SDS011;63979;55.644;37.734;2024-02-21T11:25:51;8.93;;;4.25;;
75408;SDS011;63979;55.644;37.734;2024-02-21T11:30:52;9.75;;;5.15;;
75408;SDS011;63979;55.644;37.734;2024-02-21T11:35:55;6.63;;;3.50;;
75408;SDS011;63979;55.644;37.734;2024-02-21T11:40:56;6.03;;;3.63;;
75408;SDS011;63979;55.644;37.734;2024-02-21T11:45:59;5.43;;;3.50;;
75408;SDS011;63979;55.644;37.734;2024-02-21T11:51:01;5.95;;;3.45;;
75408;SDS011;63979;55.644;37.734;2024-02-21T11:56:04;8.20;;;3.85;;
75408;SDS011;63979;55.644;37.734;2024-02-21T12:01:05;6.72;;;3.90;;
75408;SDS011;63979;55.644;37.734;2024-02-21T12:06:07;8.70;;;4.85;;
75408;SDS011;63979;55.644;37.734;2024-02-21T12:11:21;10.77;;;4.28;;
75408;SDS011;63979;55.644;37.734;2024-02-21T12:16:22;10.05;;;4.65;;
75408;SDS011;63979;55.644;37.734;2024-02-21T12:21:24;7.13;;;3.78;;
75408;SDS011;63979;55.644;37.734;2024-02-21T12:26:30;5.82;;;3.70;;
75408;SDS011;63979;55.644;37.734;2024-02-21T12:31:32;7.15;;;5.10;;
75408;SDS011;63979;55.644;37.734;2024-02-21T12:36:33;8.02;;;4.25;;
75408;SDS011;63979;55.644;37.734;2024-02-21T12:41:35;6.57;;;4.25;;
75408;SDS011;63979;55.644;37.734;2024-02-21T12:46:38;7.93;;;4.40;;
75408;SDS011;63979;55.644;37.734;2024-02-21T12:51:42;5.85;;;3.55;;
75408;SDS011;63979;55.644;37.734;2024-02-21T12:56:44;4.70;;;3.42;;
75408;SDS011;63979;55.644;37.734;2024-02-21T13:01:45;4.05;;;2.78;;
75408;SDS011;63979;55.644;37.734;2024-02-21T13:06:45;8.57;;;4.20;;
75408;SDS011;63979;55.644;37.734;2024-02-21T13:11:46;8.07;;;4.72;;
75408;SDS011;63979;55.644;37.734;2024-02-21T13:16:47;7.85;;;3.90;;
75408;SDS011;63979;55.644;37.734;2024-02-21T13:21:48;5.80;;;3.40;;
75408;SDS011;63979;55.644;37.734;2024-02-21T13:26:49;5.68;;;3.60;;
75408;SDS011;63979;55.644;37.734;2024-02-21T13:31:50;5.70;;;3.00;;
75408;SDS011;63979;55.644;37.734;2024-02-21T13:36:53;6.38;;;3.42;;
75408;SDS011;63979;55.644;37.734;2024-02-21T13:41:55;6.30;;;2.58;;
75408;SDS011;63979;55.644;37.734;2024-02-21T13:46:59;5.22;;;4.13;;
75408;SDS011;63979;55.644;37.734;2024-02-21T13:52:00;6.47;;;3.70;;
75408;SDS011;63979;55.644;37.734;2024-02-21T13:57:01;5.00;;;3.00;;
75408;SDS011;63979;55.644;37.734;2024-02-21T14:02:03;3.08;;;2.60;;
75408;SDS011;63979;55.644;37.734;2024-02-21T14:07:05;5.82;;;3.65;;
75408;SDS011;63979;55.644;37.734;2024-02-21T14:12:06;5.47;;;3.50;;
75408;SDS011;63979;55.644;37.734;2024-02-21T14:17:08;6.65;;;4.43;;
75408;SDS011;63979;55.644;37.734;2024-02-21T14:22:09;7.22;;;3.67;;
75408;SDS011;63979;55.644;37.734;2024-02-21T14:27:11;7.60;;;3.55;;
75408;SDS011;63979;55.644;37.734;2024-02-21T14:32:13;7.88;;;3.33;;
75408;SDS011;63979;55.644;37.734;2024-02-21T14:37:14;10.82;;;5.85;;
75408;SDS011;63979;55.644;37.734;2024-02-21T14:42:16;9.05;;;3.40;;
75408;SDS011;63979;55.644;37.734;2024-02-21T14:47:18;5.93;;;3.70;;
75408;SDS011;63979;55.644;37.734;2024-02-21T14:52:19;9.25;;;3.05;;
75408;SDS011;63979;55.644;37.734;2024-02-21T14:57:21;8.75;;;5.38;;
75408;SDS011;63979;55.644;37.734;2024-02-21T15:02:22;7.70;;;3.00;;
75408;SDS011;63979;55.644;37.734;2024-02-21T15:07:23;3.78;;;3.40;;
75408;SDS011;63979;55.644;37.734;2024-02-21T15:12:25;6.38;;;3.10;;
75408;SDS011;63979;55.644;37.734;2024-02-21T15:17:26;9.65;;;3.97;;
75408;SDS011;63979;55.644;37.734;2024-02-21T15:22:27;9.60;;;5.28;;
75408;SDS011;63979;55.644;37.734;2024-02-21T15:27:28;7.20;;;3.33;;
75408;SDS011;63979;55.644;37.734;2024-02-21T15:32:29;8.18;;;4.07;;
75408;SDS011;63979;55.644;37.734;2024-02-21T15:37:31;6.68;;;3.70;;
75408;SDS011;63979;55.644;37.734;2024-02-21T15:42:33;11.15;;;4.18;;
75408;SDS011;63979;55.644;37.734;2024-02-21T15:47:35;7.35;;;3.78;;
75408;SDS011;63979;55.644;37.734;2024-02-21T15:52:36;5.63;;;3.25;;
75408;SDS011;63979;55.644;37.734;2024-02-21T15:57:38;8.38;;;4.25;;
75408;SDS011;63979;55.644;37.734;2024-02-21T16:02:58;7.47;;;3.42;;
75408;SDS011;63979;55.644;37.734;2024-02-21T16:08:00;5.70;;;3.20;;
75408;SDS011;63979;55.644;37.734;2024-02-21T16:13:02;11.43;;;6.28;;
75408;SDS011;63979;55.644;37.734;2024-02-21T16:18:04;6.93;;;4.47;;
75408;SDS011;63979;55.644;37.734;2024-02-21T16:23:07;9.10;;;4.18;;
75408;SDS011;63979;55.644;37.734;2024-02-21T16:28:11;6.97;;;2.80;;
75408;SDS011;63979;55.644;37.734;2024-02-21T16:33:14;9.43;;;4.78;;
75408;SDS011;63979;55.644;37.734;2024-02-21T16:38:14;8.10;;;4.68;;
75408;SDS011;63979;55.644;37.734;2024-02-21T16:43:16;8.43;;;4.45;;
75408;SDS011;63979;55.644;37.734;2024-02-21T16:48:17;9.07;;;3.88;;
75408;SDS011;63979;55.644;37.734;2024-02-21T16:53:19;6.18;;;3.72;;
75408;SDS011;63979;55.644;37.734;2024-02-21T16:58:22;10.02;;;4.63;;
75408;SDS011;63979;55.644;37.734;2024-02-21T17:03:23;6.82;;;4.55;;
75408;SDS011;63979;55.644;37.734;2024-02-21T17:08:25;8.40;;;4.32;;
75408;SDS011;63979;55.644;37.734;2024-02-21T17:13:26;8.45;;;4.70;;
75408;SDS011;63979;55.644;37.734;2024-02-21T17:18:27;7.72;;;4.18;;
75408;SDS011;63979;55.644;37.734;2024-02-21T17:23:29;7.25;;;3.78;;
75408;SDS011;63979;55.644;37.734;2024-02-21T17:28:31;7.82;;;4.47;;
75408;SDS011;63979;55.644;37.734;2024-02-21T17:33:32;10.88;;;5.38;;
75408;SDS011;63979;55.644;37.734;2024-02-21T17:38:34;12.07;;;6.35;;
75408;SDS011;63979;55.644;37.734;2024-02-21T17:43:35;17.48;;;5.68;;
75408;SDS011;63979;55.644;37.734;2024-02-21T17:48:36;8.57;;;4.47;;
75408;SDS011;63979;55.644;37.734;2024-02-21T17:53:54;8.63;;;4.70;;
75408;SDS011;63979;55.644;37.734;2024-02-21T17:59:04;11.60;;;6.28;;
75408;SDS011;63979;55.644;37.734;2024-02-21T18:04:05;13.55;;;5.25;;
75408;SDS011;63979;55.644;37.734;2024-02-21T18:09:08;6.82;;;4.28;;
75408;SDS011;63979;55.644;37.734;2024-02-21T18:14:09;10.20;;;4.75;;
75408;SDS011;63979;55.644;37.734;2024-02-21T18:19:10;11.60;;;5.20;;
75408;SDS011;63979;55.644;37.734;2024-02-21T18:24:13;10.30;;;5.60;;
75408;SDS011;63979;55.644;37.734;2024-02-21T18:29:16;17.83;;;6.57;;
75408;SDS011;63979;55.644;37.734;2024-02-21T18:34:19;7.22;;;3.80;;
75408;SDS011;63979;55.644;37.734;2024-02-21T18:39:20;8.57;;;4.82;;
75408;SDS011;63979;55.644;37.734;2024-02-21T18:44:24;8.52;;;4.97;;
75408;SDS011;63979;55.644;37.734;2024-02-21T18:49:25;7.57;;;4.07;;
75408;SDS011;63979;55.644;37.734;2024-02-21T18:54:26;13.20;;;5.18;;
75408;SDS011;63979;55.644;37.734;2024-02-21T18:59:27;18.48;;;5.72;;
75408;SDS011;63979;55.644;37.734;2024-02-21T19:04:29;15.18;;;6.10;;
75408;SDS011;63979;55.644;37.734;2024-02-21T19:09:31;9.20;;;5.43;;
75408;SDS011;63979;55.644;37.734;2024-02-21T19:14:32;11.65;;;4.88;;
75408;SDS011;63979;55.644;37.734;2024-02-21T19:19:35;7.82;;;4.45;;
75408;SDS011;63979;55.644;37.734;2024-02-21T19:24:37;13.50;;;6.45;;
75408;SDS011;63979;55.644;37.734;2024-02-21T19:29:39;13.55;;;6.00;;
75408;SDS011;63979;55.644;37.734;2024-02-21T19:34:40;12.60;;;6.10;;
75408;SDS011;63979;55.644;37.734;2024-02-21T19:39:41;18.10;;;6.80;;
75408;SDS011;63979;55.644;37.734;2024-02-21T19:44:42;5.30;;;4.00;;
75408;SDS011;63979;55.644;37.734;2024-02-21T19:49:43;8.48;;;5.00;;
75408;SDS011;63979;55.644;37.734;2024-02-21T19:54:48;12.25;;;5.20;;
75408;SDS011;63979;55.644;37.734;2024-02-21T19:59:49;7.97;;;4.88;;
75408;SDS011;63979;55.644;37.734;2024-02-21T20:04:51;13.25;;;5.85;;
75408;SDS011;63979;55.644;37.734;2024-02-21T20:09:52;13.88;;;5.93;;
75408;SDS011;63979;55.644;37.734;2024-02-21T20:14:54;11.02;;;6.75;;
75408;SDS011;63979;55.644;37.734;2024-02-21T20:19:55;16.73;;;7.50;;
75408;SDS011;63979;55.644;37.734;2024-02-21T20:24:56;12.45;;;7.35;;
75408;SDS011;63979;55.644;37.734;2024-02-21T20:29:57;10.55;;;5.20;;
75408;SDS011;63979;55.644;37.734;2024-02-21T20:34:58;11.43;;;5.78;;
75408;SDS011;63979;55.644;37.734;2024-02-21T20:39:59;15.70;;;7.65;;
75408;SDS011;63979;55.644;37.734;2024-02-21T20:45:00;17.50;;;7.65;;
75408;SDS011;63979;55.644;37.734;2024-02-21T20:50:02;14.80;;;7.13;;
75408;SDS011;63979;55.644;37.734;2024-02-21T20:55:04;15.27;;;7.50;;
75408;SDS011;63979;55.644;37.734;2024-02-21T21:00:07;18.45;;;8.35;;
75408;SDS011;63979;55.644;37.734;2024-02-21T21:05:08;11.05;;;6.72;;
75408;SDS011;63979;55.644;37.734;2024-02-21T21:10:10;17.35;;;7.03;;
75408;SDS011;63979;55.644;37.734;2024-02-21T21:15:13;12.30;;;7.18;;
75408;SDS011;63979;55.644;37.734;2024-02-21T21:20:15;12.48;;;6.55;;
75408;SDS011;63979;55.644;37.734;2024-02-21T21:25:17;12.55;;;7.53;;
75408;SDS011;63979;55.644;37.734;2024-02-21T21:30:18;9.63;;;5.22;;
75408;SDS011;63979;55.644;37.734;2024-02-21T21:35:22;10.38;;;5.65;;
75408;SDS011;63979;55.644;37.734;2024-02-21T21:40:23;15.25;;;6.32;;
75408;SDS011;63979;55.644;37.734;2024-02-21T21:45:26;13.10;;;5.78;;
75408;SDS011;63979;55.644;37.734;2024-02-21T21:50:27;19.05;;;8.50;;
75408;SDS011;63979;55.644;37.734;2024-02-21T21:55:28;18.98;;;8.85;;
75408;SDS011;63979;55.644;37.734;2024-02-21T22:00:30;14.98;;;7.28;;
75408;SDS011;63979;55.644;37.734;2024-02-21T22:05:31;15.18;;;7.40;;
75408;SDS011;63979;55.644;37.734;2024-02-21T22:10:32;22.95;;;7.10;;
75408;SDS011;63979;55.644;37.734;2024-02-21T22:15:33;15.70;;;8.18;;
75408;SDS011;63979;55.644;37.734;2024-02-21T22:20:34;11.38;;;6.25;;
75408;SDS011;63979;55.644;37.734;2024-02-21T22:25:36;13.00;;;6.05;;
75408;SDS011;63979;55.644;37.734;2024-02-21T22:30:40;22.17;;;9.23;;
75408;SDS011;63979;55.644;37.734;2024-02-21T22:35:41;11.65;;;6.32;;
75408;SDS011;63979;55.644;37.734;2024-02-21T22:40:44;11.50;;;5.55;;
75408;SDS011;63979;55.644;37.734;2024-02-21T22:45:45;11.95;;;6.45;;
75408;SDS011;63979;55.644;37.734;2024-02-21T22:50:47;10.45;;;6.65;;
75408;SDS011;63979;55.644;37.734;2024-02-21T22:55:48;13.75;;;6.78;;
75408;SDS011;63979;55.644;37.734;2024-02-21T23:00:49;16.48;;;8.43;;
75408;SDS011;63979;55.644;37.734;2024-02-21T23:05:50;14.30;;;6.53;;
75408;SDS011;63979;55.644;37.734;2024-02-21T23:10:51;14.93;;;7.65;;
75408;SDS011;63979;55.644;37.734;2024-02-21T23:15:52;16.45;;;7.50;;
75408;SDS011;63979;55.644;37.734;2024-02-21T23:20:53;14.60;;;7.28;;
75408;SDS011;63979;55.644;37.734;2024-02-21T23:25:54;12.27;;;5.95;;
75408;SDS011;63979;55.644;37.734;2024-02-21T23:30:55;14.13;;;7.20;;
75408;SDS011;63979;55.644;37.734;2024-02-21T23:35:56;11.80;;;7.25;;
75408;SDS011;63979;55.644;37.734;2024-02-21T23:40:56;18.75;;;9.48;;
75408;SDS011;63979;55.644;37.734;2024-02-21T23:45:58;14.63;;;6.03;;
75408;SDS011;63979;55.644;37.734;2024-02-21T23:51:00;16.52;;;8.38;;
75408;SDS011;63979;55.644;37.734;2024-02-21T23:56:01;15.38;;;8.90;;
